createdAt,value
2018-07-14T00:01:49.445Z,15.10
2018-07-14T00:04:17.814Z,15.10
2018-07-14T00:06:46.248Z,15.10
2018-07-14T00:09:14.586Z,15.10
2018-07-14T00:11:43.136Z,15.00
2018-07-14T00:14:11.491Z,15.00
2018-07-14T00:16:40.000Z,15.00
2018-07-14T00:19:08.306Z,15.00
2018-07-14T00:21:36.684Z,15.00
2018-07-14T00:24:05.820Z,15.00
2018-07-14T00:26:34.180Z,15.00
2018-07-14T00:29:02.536Z,14.90
2018-07-14T00:31:30.862Z,14.90
2018-07-14T00:33:59.210Z,14.90
2018-07-14T00:36:27.549Z,14.90
2018-07-14T00:38:55.892Z,14.90
2018-07-14T00:41:24.342Z,14.90
2018-07-14T00:43:52.752Z,14.80
2018-07-14T00:46:21.098Z,14.80
2018-07-14T00:48:49.433Z,14.80
2018-07-14T00:51:17.858Z,14.80
2018-07-14T00:53:46.200Z,14.80
2018-07-14T00:56:14.848Z,14.80
2018-07-14T00:58:43.161Z,14.70
2018-07-14T01:01:11.477Z,14.60
2018-07-14T01:03:39.819Z,14.60
2018-07-14T01:06:08.149Z,14.60
2018-07-14T01:08:36.495Z,14.60
2018-07-14T01:11:05.591Z,14.60
2018-07-14T01:13:34.719Z,14.60
2018-07-14T01:16:03.039Z,14.60
2018-07-14T01:18:31.494Z,14.60
2018-07-14T01:20:59.817Z,14.50
2018-07-14T01:23:28.914Z,14.40
2018-07-14T01:25:58.021Z,14.40
2018-07-14T01:28:26.359Z,14.40
2018-07-14T01:30:54.881Z,14.40
2018-07-14T01:33:23.989Z,14.30
2018-07-14T01:35:52.303Z,14.30
2018-07-14T01:38:20.761Z,14.30
2018-07-14T01:40:49.127Z,14.30
2018-07-14T01:43:17.589Z,14.30
2018-07-14T01:45:46.689Z,14.20
2018-07-14T01:48:15.082Z,14.20
2018-07-14T01:50:43.419Z,14.30
2018-07-14T01:53:11.755Z,14.20
2018-07-14T01:55:40.190Z,14.10
2018-07-14T01:58:08.667Z,14.10
2018-07-14T02:00:37.085Z,14.10
2018-07-14T02:03:06.181Z,14.10
2018-07-14T02:05:34.565Z,14.10
2018-07-14T02:08:02.901Z,14.10
2018-07-14T02:10:31.321Z,14.20
2018-07-14T02:12:59.679Z,14.10
2018-07-14T02:15:28.799Z,14.20
2018-07-14T02:17:57.276Z,14.10
2018-07-14T02:20:25.609Z,14.20
2018-07-14T02:22:53.987Z,14.20
2018-07-14T02:25:22.431Z,14.20
2018-07-14T02:27:50.777Z,14.20
2018-07-14T02:30:19.892Z,14.20
2018-07-14T02:32:48.215Z,14.20
2018-07-14T02:35:16.567Z,14.10
2018-07-14T02:37:44.941Z,14.10
2018-07-14T02:40:13.303Z,14.10
2018-07-14T02:42:41.657Z,14.10
2018-07-14T02:45:09.974Z,14.00
2018-07-14T02:47:38.334Z,14.00
2018-07-14T02:50:06.678Z,14.00
2018-07-14T02:52:35.051Z,14.00
2018-07-14T02:55:03.497Z,14.00
2018-07-14T02:57:31.889Z,14.00
2018-07-14T03:00:00.239Z,14.00
2018-07-14T03:02:29.442Z,14.00
2018-07-14T03:04:57.777Z,14.00
2018-07-14T03:07:26.114Z,14.00
2018-07-14T03:09:54.463Z,14.10
2018-07-14T03:12:22.936Z,14.10
2018-07-14T03:14:51.285Z,14.10
2018-07-14T03:17:19.634Z,14.00
2018-07-14T03:19:47.970Z,14.00
2018-07-14T03:22:17.186Z,13.90
2018-07-14T03:24:45.600Z,13.90
2018-07-14T03:27:14.094Z,14.00
2018-07-14T03:29:42.431Z,14.00
2018-07-14T03:32:10.812Z,14.00
2018-07-14T03:34:39.183Z,13.90
2018-07-14T03:37:07.520Z,13.90
2018-07-14T03:39:35.884Z,13.90
2018-07-14T03:42:04.303Z,13.90
2018-07-14T03:44:32.607Z,13.90
2018-07-14T03:47:00.942Z,13.90
2018-07-14T03:49:29.287Z,13.80
2018-07-14T03:51:57.880Z,13.80
2018-07-14T03:54:26.188Z,13.80
2018-07-14T03:56:54.641Z,13.90
2018-07-14T03:59:22.942Z,13.90
2018-07-14T04:01:51.360Z,14.00
2018-07-14T04:04:20.694Z,15.20
2018-07-14T04:06:49.062Z,14.10
2018-07-14T04:09:17.764Z,14.10
2018-07-14T04:11:46.089Z,14.20
2018-07-14T04:14:15.214Z,14.30
2018-07-14T04:16:43.583Z,14.30
2018-07-14T04:19:12.084Z,14.40
2018-07-14T04:21:40.398Z,14.40
2018-07-14T04:24:08.809Z,14.40
2018-07-14T04:26:37.168Z,14.50
2018-07-14T04:29:06.325Z,14.40
2018-07-14T04:31:35.159Z,14.40
2018-07-14T04:34:04.300Z,14.50
2018-07-14T04:36:32.632Z,14.40
2018-07-14T04:39:01.828Z,14.50
2018-07-14T04:41:30.168Z,14.50
2018-07-14T04:43:58.526Z,14.60
2018-07-14T04:46:26.860Z,14.60
2018-07-14T04:48:55.194Z,14.70
2018-07-14T04:51:23.560Z,14.70
2018-07-14T04:53:51.899Z,14.70
2018-07-14T04:56:20.260Z,14.70
2018-07-14T04:58:48.598Z,14.80
2018-07-14T05:01:16.932Z,14.80
2018-07-14T05:03:45.280Z,14.90
2018-07-14T05:06:14.327Z,14.90
2018-07-14T05:08:43.441Z,14.90
2018-07-14T05:11:11.780Z,14.90
2018-07-14T05:13:40.196Z,14.90
2018-07-14T05:16:08.792Z,15.00
2018-07-14T05:18:37.162Z,15.00
2018-07-14T05:21:05.523Z,15.10
2018-07-14T05:23:34.613Z,15.20
2018-07-14T05:26:03.857Z,15.20
2018-07-14T05:28:32.231Z,15.20
2018-07-14T05:31:00.668Z,15.30
2018-07-14T05:33:29.767Z,15.40
2018-07-14T05:35:58.179Z,15.40
2018-07-14T05:38:26.561Z,15.50
2018-07-14T05:40:55.016Z,15.50
2018-07-14T05:43:24.237Z,15.70
2018-07-14T05:45:52.581Z,15.60
2018-07-14T05:48:20.951Z,15.70
2018-07-14T05:50:49.382Z,15.70
2018-07-14T05:53:17.726Z,15.80
2018-07-14T05:55:46.920Z,16.00
2018-07-14T05:58:16.154Z,16.00
2018-07-14T06:00:44.489Z,16.00
2018-07-14T06:03:12.856Z,16.10
2018-07-14T06:05:41.767Z,16.30
2018-07-14T06:08:10.885Z,16.40
2018-07-14T06:10:39.262Z,16.40
2018-07-14T06:13:07.671Z,16.40
2018-07-14T06:15:36.029Z,16.50
2018-07-14T06:18:04.355Z,16.70
2018-07-14T06:20:32.846Z,16.80
2018-07-14T06:23:01.273Z,16.90
2018-07-14T06:25:29.687Z,17.10
2018-07-14T06:27:58.132Z,17.20
2018-07-14T06:30:26.527Z,17.20
2018-07-14T06:32:54.858Z,17.30
2018-07-14T06:35:23.181Z,17.40
2018-07-14T06:37:51.521Z,17.40
2018-07-14T06:40:20.610Z,17.60
2018-07-14T06:42:48.940Z,17.50
2018-07-14T06:45:17.295Z,17.40
2018-07-14T06:47:45.637Z,17.20
2018-07-14T06:50:14.070Z,17.40
2018-07-14T06:52:42.485Z,17.70
2018-07-14T06:55:10.814Z,17.90
2018-07-14T06:57:39.161Z,18.10
2018-07-14T07:00:07.672Z,18.20
2018-07-14T07:02:37.279Z,18.40
2018-07-14T07:05:06.409Z,18.60
2018-07-14T07:07:34.865Z,18.60
2018-07-14T07:10:03.205Z,18.80
2018-07-14T07:12:31.561Z,18.90
2018-07-14T07:14:59.920Z,19.00
2018-07-14T07:17:28.265Z,19.20
2018-07-14T07:19:57.365Z,19.30
2018-07-14T07:22:25.716Z,19.30
2018-07-14T07:24:54.050Z,19.30
2018-07-14T07:27:22.390Z,19.50
2018-07-14T07:29:50.726Z,19.50
2018-07-14T07:32:19.083Z,19.80
2018-07-14T07:34:47.430Z,19.80
2018-07-14T07:37:16.558Z,19.60
2018-07-14T07:39:44.963Z,19.60
2018-07-14T07:42:13.526Z,19.70
2018-07-14T07:44:46.269Z,19.70
2018-07-14T07:47:15.385Z,19.80
2018-07-14T07:49:43.880Z,19.80
2018-07-14T07:52:12.220Z,19.90
2018-07-14T07:54:40.583Z,19.90
2018-07-14T07:57:08.908Z,19.80
2018-07-14T07:59:37.276Z,19.90
2018-07-14T08:02:06.372Z,19.90
2018-07-14T08:04:34.704Z,19.90
2018-07-14T08:07:03.029Z,19.90
2018-07-14T08:09:31.401Z,19.90
2018-07-14T08:11:59.744Z,19.80
2018-07-14T08:14:28.104Z,19.70
2018-07-14T08:16:56.429Z,19.50
2018-07-14T08:19:25.571Z,19.30
2018-07-14T08:21:53.954Z,19.20
2018-07-14T08:24:22.283Z,19.10
2018-07-14T08:26:51.391Z,19.10
2018-07-14T08:29:19.726Z,19.10
2018-07-14T08:31:48.096Z,19.40
2018-07-14T08:34:16.420Z,19.60
2018-07-14T08:36:45.657Z,20.00
2018-07-14T08:39:14.026Z,20.00
2018-07-14T08:41:42.406Z,20.30
2018-07-14T08:44:10.773Z,20.50
2018-07-14T08:46:39.143Z,20.70
2018-07-14T08:49:07.490Z,20.80
2018-07-14T08:51:35.950Z,20.70
2018-07-14T08:54:04.414Z,20.70
2018-07-14T08:56:32.909Z,20.70
2018-07-14T08:59:01.221Z,20.80
2018-07-14T09:01:30.372Z,20.90
2018-07-14T09:03:58.711Z,21.10
2018-07-14T09:06:28.213Z,21.30
2018-07-14T09:08:56.540Z,21.30
2018-07-14T09:11:24.946Z,20.90
2018-07-14T09:13:53.279Z,20.70
2018-07-14T09:16:21.730Z,20.60
2018-07-14T09:18:50.064Z,20.30
2018-07-14T09:21:18.428Z,20.30
2018-07-14T09:23:46.776Z,20.50
2018-07-14T09:26:15.213Z,20.90
2018-07-14T09:28:43.580Z,21.20
2018-07-14T09:31:11.958Z,21.50
2018-07-14T09:33:40.264Z,21.80
2018-07-14T09:36:08.600Z,22.00
2018-07-14T09:38:36.961Z,22.10
2018-07-14T09:41:06.133Z,21.80
2018-07-14T09:43:34.455Z,21.80
2018-07-14T09:46:02.776Z,22.00
2018-07-14T09:48:31.144Z,22.40
2018-07-14T09:50:59.579Z,22.80
2018-07-14T09:53:27.916Z,23.10
2018-07-14T09:55:56.342Z,22.80
2018-07-14T09:58:24.890Z,22.50
2018-07-14T10:00:53.234Z,22.50
2018-07-14T10:03:21.579Z,22.60
2018-07-14T10:05:50.592Z,22.60
2018-07-14T10:08:18.970Z,22.60
2018-07-14T10:10:47.396Z,22.70
2018-07-14T10:13:15.849Z,22.90
2018-07-14T10:15:44.170Z,23.20
2018-07-14T10:18:12.492Z,23.30
2018-07-14T10:20:40.847Z,23.50
2018-07-14T10:23:09.334Z,23.70
2018-07-14T10:25:37.803Z,23.80
2018-07-14T10:28:06.094Z,23.80
2018-07-14T10:30:34.480Z,23.60
2018-07-14T10:33:03.742Z,23.60
2018-07-14T10:35:32.138Z,23.60
2018-07-14T10:38:00.626Z,23.40
2018-07-14T10:40:29.044Z,23.50
2018-07-14T10:42:57.420Z,23.60
2018-07-14T10:45:26.228Z,23.80
2018-07-14T10:47:54.542Z,24.30
2018-07-14T10:50:22.880Z,24.20
2018-07-14T10:52:51.328Z,24.40
2018-07-14T10:55:19.854Z,24.80
2018-07-14T10:57:48.428Z,25.20
2018-07-14T11:00:16.772Z,25.10
2018-07-14T11:02:45.106Z,25.30
2018-07-14T11:05:13.484Z,25.50
2018-07-14T11:07:41.830Z,25.30
2018-07-14T11:10:10.163Z,24.70
2018-07-14T11:12:38.502Z,24.70
2018-07-14T11:15:06.909Z,24.90
2018-07-14T11:17:35.384Z,24.80
2018-07-14T11:20:04.572Z,24.70
2018-07-14T11:22:32.899Z,24.70
2018-07-14T11:25:01.279Z,24.80
2018-07-14T11:27:29.620Z,24.90
2018-07-14T11:29:58.024Z,25.10
2018-07-14T11:32:26.429Z,25.30
2018-07-14T11:34:54.808Z,25.40
2018-07-14T11:37:23.366Z,25.60
2018-07-14T11:39:51.742Z,25.70
2018-07-14T11:42:20.225Z,25.70
2018-07-14T11:44:48.595Z,25.60
2018-07-14T11:47:17.902Z,25.10
2018-07-14T11:49:46.268Z,25.10
2018-07-14T11:52:14.663Z,25.20
2018-07-14T11:54:43.454Z,25.40
2018-07-14T11:57:12.560Z,26.50
2018-07-14T11:59:40.886Z,26.40
2018-07-14T12:02:10.149Z,28.10
2018-07-14T12:04:38.548Z,28.10
2018-07-14T12:07:06.891Z,28.70
2018-07-14T12:09:35.318Z,28.90
2018-07-14T12:12:03.750Z,29.00
2018-07-14T12:14:32.188Z,29.20
2018-07-14T12:17:00.508Z,29.40
2018-07-14T12:19:28.892Z,29.80
2018-07-14T12:21:57.220Z,30.00
2018-07-14T12:24:25.591Z,30.00
2018-07-14T12:26:53.918Z,30.00
2018-07-14T12:29:22.297Z,30.30
2018-07-14T12:31:50.683Z,30.30
2018-07-14T12:34:19.082Z,30.30
2018-07-14T12:36:47.487Z,30.50
2018-07-14T12:39:15.831Z,30.80
2018-07-14T12:41:44.214Z,31.00
2018-07-14T12:44:12.533Z,31.30
2018-07-14T12:46:40.882Z,30.30
2018-07-14T12:49:09.232Z,30.50
2018-07-14T12:51:37.630Z,31.10
2018-07-14T12:54:06.337Z,31.60
2018-07-14T12:56:34.679Z,32.10
2018-07-14T12:59:03.035Z,32.40
2018-07-14T13:01:32.138Z,31.80
2018-07-14T13:04:00.552Z,31.80
2018-07-14T13:06:28.888Z,30.50
2018-07-14T13:08:57.309Z,30.40
2018-07-14T13:11:25.681Z,30.70
2018-07-14T13:13:54.056Z,31.20
2018-07-14T13:16:22.463Z,31.00
2018-07-14T13:18:50.795Z,30.50
2018-07-14T13:21:20.021Z,30.60
2018-07-14T13:23:48.391Z,30.50
2018-07-14T13:26:16.737Z,30.60
2018-07-14T13:28:45.181Z,30.40
2018-07-14T13:31:13.500Z,30.50
2018-07-14T13:33:41.909Z,30.30
2018-07-14T13:36:10.422Z,30.50
2018-07-14T13:38:38.801Z,30.90
2018-07-14T13:41:07.154Z,30.90
2018-07-14T13:43:35.749Z,31.10
2018-07-14T13:46:04.093Z,31.20
2018-07-14T13:48:33.194Z,31.40
2018-07-14T13:51:02.344Z,30.90
2018-07-14T13:53:30.721Z,30.90
2018-07-14T13:55:59.087Z,30.30
2018-07-14T13:58:27.687Z,30.40
2018-07-14T14:00:56.184Z,30.30
2018-07-14T14:03:24.513Z,29.90
2018-07-14T14:05:52.843Z,29.30
2018-07-14T14:08:21.299Z,29.30
2018-07-14T14:10:49.618Z,29.10
2018-07-14T14:13:18.059Z,28.80
2018-07-14T14:15:46.376Z,28.70
2018-07-14T14:18:15.593Z,28.40
2018-07-14T14:20:44.673Z,27.70
2018-07-14T14:23:13.103Z,27.70
2018-07-14T14:25:41.451Z,27.20
2018-07-14T14:28:10.555Z,27.50
2018-07-14T14:30:38.951Z,27.50
2018-07-14T14:33:07.406Z,27.40
2018-07-14T14:35:36.418Z,27.40
2018-07-14T14:38:04.773Z,27.40
2018-07-14T14:40:33.879Z,26.70
2018-07-14T14:43:02.219Z,26.70
2018-07-14T14:45:30.577Z,26.80
2018-07-14T14:47:59.755Z,26.90
2018-07-14T14:50:28.088Z,26.80
2018-07-14T14:52:56.442Z,27.00
2018-07-14T14:55:24.905Z,27.40
2018-07-14T14:57:53.211Z,27.90
2018-07-14T15:00:21.590Z,28.30
2018-07-14T15:02:49.913Z,28.30
2018-07-14T15:05:18.253Z,28.60
2018-07-14T15:07:46.605Z,28.90
2018-07-14T15:10:14.962Z,29.40
2018-07-14T15:12:43.291Z,29.60
2018-07-14T15:15:11.757Z,29.40
2018-07-14T15:17:40.797Z,28.80
2018-07-14T15:20:09.915Z,28.50
2018-07-14T15:22:38.245Z,28.50
2018-07-14T15:25:06.897Z,27.80
2018-07-14T15:27:35.223Z,28.10
2018-07-14T15:30:03.551Z,28.60
2018-07-14T15:32:31.940Z,28.80
2018-07-14T15:35:00.283Z,28.90
2018-07-14T15:37:28.671Z,29.00
2018-07-14T15:39:57.032Z,28.70
2018-07-14T15:42:26.139Z,27.50
2018-07-14T15:44:54.488Z,27.50
2018-07-14T15:47:22.990Z,27.00
2018-07-14T15:49:52.113Z,26.60
2018-07-14T15:52:20.507Z,26.50
2018-07-14T15:54:48.825Z,26.80
2018-07-14T15:57:17.163Z,26.90
2018-07-14T15:59:45.514Z,27.10
2018-07-14T16:02:13.918Z,27.50
2018-07-14T16:04:42.280Z,27.90
2018-07-14T16:07:10.601Z,28.20
2018-07-14T16:09:39.034Z,28.40
2018-07-14T16:12:07.356Z,28.00
2018-07-14T16:14:35.821Z,27.70
2018-07-14T16:17:04.151Z,27.70
2018-07-14T16:19:32.492Z,28.00
2018-07-14T16:22:00.831Z,28.30
2018-07-14T16:24:29.181Z,28.60
2018-07-14T16:26:58.299Z,29.50
2018-07-14T16:29:26.697Z,29.50
2018-07-14T16:31:55.065Z,29.80
2018-07-14T16:34:23.567Z,29.70
2018-07-14T16:36:51.859Z,29.90
2018-07-14T16:39:20.210Z,30.40
2018-07-14T16:41:48.548Z,31.00
2018-07-14T16:44:16.970Z,31.50
2018-07-14T16:46:45.336Z,32.10
2018-07-14T16:49:13.682Z,31.90
2018-07-14T16:51:41.996Z,31.90
2018-07-14T16:54:10.390Z,31.30
2018-07-14T16:56:38.764Z,30.80
2018-07-14T16:59:07.108Z,31.00
2018-07-14T17:01:36.256Z,31.20
2018-07-14T17:04:05.154Z,31.10
2018-07-14T17:06:33.622Z,31.50
2018-07-14T17:09:02.070Z,31.90
2018-07-14T17:11:30.471Z,31.90
2018-07-14T17:13:58.880Z,31.20
2018-07-14T17:16:27.229Z,30.80
2018-07-14T17:18:55.555Z,30.40
2018-07-14T17:21:23.992Z,30.70
2018-07-14T17:23:52.358Z,30.50
2018-07-14T17:26:20.710Z,30.20
2018-07-14T17:28:49.839Z,30.20
2018-07-14T17:31:18.213Z,30.10
2018-07-14T17:33:46.540Z,29.90
2018-07-14T17:36:14.899Z,29.20
2018-07-14T17:38:43.248Z,28.50
2018-07-14T17:41:11.781Z,28.00
2018-07-14T17:43:40.213Z,27.40
2018-07-14T17:46:08.538Z,27.10
2018-07-14T17:48:36.884Z,26.70
2018-07-14T17:51:05.242Z,26.50
2018-07-14T17:53:33.613Z,26.30
2018-07-14T17:56:02.695Z,26.00
2018-07-14T17:58:31.032Z,26.00
2018-07-14T18:00:59.385Z,26.00
2018-07-14T18:03:27.733Z,26.20
2018-07-14T18:05:56.846Z,26.70
2018-07-14T18:08:25.176Z,26.60
2018-07-14T18:10:53.608Z,27.20
2018-07-14T18:13:22.056Z,27.50
2018-07-14T18:15:50.383Z,28.00
2018-07-14T18:18:18.759Z,28.00
2018-07-14T18:20:47.214Z,27.80
2018-07-14T18:23:15.612Z,27.70
2018-07-14T18:25:43.957Z,27.80
2018-07-14T18:28:12.295Z,27.90
2018-07-14T18:30:40.648Z,28.10
2018-07-14T18:33:09.041Z,28.10
2018-07-14T18:35:37.479Z,28.20
2018-07-14T18:38:07.808Z,28.10
2018-07-14T18:40:36.924Z,28.10
2018-07-14T18:43:05.368Z,28.10
2018-07-14T18:45:33.790Z,27.90
2018-07-14T18:48:02.160Z,27.70
2018-07-14T18:50:31.646Z,27.20
2018-07-14T18:52:59.951Z,27.20
2018-07-14T18:55:28.522Z,27.00
2018-07-14T18:57:56.904Z,26.60
2018-07-14T19:00:25.286Z,26.00
2018-07-14T19:02:53.969Z,25.80
2018-07-14T19:05:24.254Z,25.10
2018-07-14T19:07:53.098Z,25.10
2018-07-14T19:10:21.559Z,24.60
2018-07-14T19:12:49.911Z,24.10
2018-07-14T19:15:18.266Z,23.70
2018-07-14T19:17:46.578Z,23.30
2018-07-14T19:20:15.824Z,22.60
2018-07-14T19:22:44.212Z,22.60
2018-07-14T19:25:12.687Z,22.30
2018-07-14T19:27:41.168Z,22.10
2018-07-14T19:30:09.838Z,21.80
2018-07-14T19:32:38.176Z,21.60
2018-07-14T19:35:06.622Z,21.40
2018-07-14T19:37:35.254Z,21.20
2018-07-14T19:40:03.910Z,21.00
2018-07-14T19:42:32.513Z,20.90
2018-07-14T19:45:00.866Z,20.70
2018-07-14T19:47:29.233Z,20.60
2018-07-14T19:49:57.608Z,20.60
2018-07-14T19:52:26.525Z,20.50
2018-07-14T19:54:55.245Z,20.40
2018-07-14T19:57:23.885Z,20.30
2018-07-14T19:59:52.435Z,20.20
2018-07-14T20:02:22.656Z,20.10
2018-07-14T20:04:51.404Z,20.00
2018-07-14T20:07:19.846Z,20.00
2018-07-14T20:09:48.584Z,20.00
2018-07-14T20:12:17.427Z,19.90
2018-07-14T20:14:46.337Z,19.90
2018-07-14T20:17:15.352Z,19.80
2018-07-14T20:19:43.797Z,19.80
2018-07-14T20:22:12.148Z,19.70
2018-07-14T20:24:42.126Z,19.50
2018-07-14T20:27:11.100Z,19.50
2018-07-14T20:29:39.525Z,19.50
2018-07-14T20:32:08.643Z,19.30
2018-07-14T20:34:37.899Z,19.30
2018-07-14T20:37:06.650Z,19.20
2018-07-14T20:39:35.596Z,19.20
2018-07-14T20:42:04.599Z,19.20
2018-07-14T20:44:32.985Z,19.10
2018-07-14T20:47:03.009Z,18.90
2018-07-14T20:49:31.357Z,18.90
2018-07-14T20:52:00.268Z,18.80
2018-07-14T20:54:30.621Z,18.60
2018-07-14T20:56:59.086Z,18.70
2018-07-14T20:59:27.518Z,18.70
2018-07-14T21:01:56.280Z,18.60
2018-07-14T21:04:24.778Z,18.60
2018-07-14T21:06:53.189Z,18.60
2018-07-14T21:09:21.680Z,18.50
2018-07-14T21:11:50.976Z,18.30
2018-07-14T21:14:19.314Z,18.30
2018-07-14T21:16:48.508Z,18.30
2018-07-14T21:19:16.888Z,18.20
2018-07-14T21:21:46.805Z,18.20
2018-07-14T21:24:15.162Z,18.10
2018-07-14T21:26:44.833Z,18.10
2018-07-14T21:29:14.658Z,18.10
2018-07-14T21:31:43.528Z,18.10
2018-07-14T21:34:13.031Z,18.00
2018-07-14T21:36:41.526Z,18.00
2018-07-14T21:39:10.041Z,18.00
2018-07-14T21:41:38.443Z,18.00
2018-07-14T21:44:06.818Z,18.00
2018-07-14T21:46:35.184Z,17.90
2018-07-14T21:49:04.613Z,17.80
2018-07-14T21:51:33.106Z,17.80
2018-07-14T21:54:01.508Z,17.80
2018-07-14T21:56:30.718Z,17.80
2018-07-14T21:59:00.436Z,17.70
2018-07-14T22:01:29.731Z,17.60
2018-07-14T22:03:58.986Z,17.60
2018-07-14T22:06:28.208Z,17.60
2018-07-14T22:08:56.546Z,17.50
2018-07-14T22:11:24.950Z,17.50
2018-07-14T22:13:53.301Z,17.50
2018-07-14T22:16:21.618Z,17.40
2018-07-14T22:18:50.024Z,17.40
2018-07-14T22:21:19.142Z,17.30
2018-07-14T22:23:48.254Z,17.20
2018-07-14T22:26:16.596Z,17.20
2018-07-14T22:28:45.786Z,17.10
2018-07-14T22:31:14.215Z,17.10
2018-07-14T22:33:42.589Z,17.10
2018-07-14T22:36:10.924Z,17.10
2018-07-14T22:38:39.357Z,17.00
2018-07-14T22:41:07.697Z,17.00
2018-07-14T22:43:36.930Z,16.80
2018-07-14T22:46:05.252Z,16.80
2018-07-14T22:48:33.605Z,16.80
2018-07-14T22:51:02.560Z,16.70
2018-07-14T22:53:32.604Z,16.60
2018-07-14T22:56:00.928Z,16.60
2018-07-14T22:58:29.305Z,16.60
2018-07-14T23:00:57.717Z,16.60
2018-07-14T23:03:26.136Z,16.60
2018-07-14T23:05:54.611Z,16.50
2018-07-14T23:08:22.904Z,16.50
2018-07-14T23:10:52.430Z,16.40
2018-07-14T23:13:20.780Z,16.40
2018-07-14T23:15:49.131Z,16.40
2018-07-14T23:18:17.480Z,16.40
2018-07-14T23:20:46.620Z,16.40
2018-07-14T23:23:15.169Z,16.30
2018-07-14T23:25:44.364Z,16.30
2018-07-14T23:28:13.463Z,16.30
2018-07-14T23:30:42.575Z,16.20
2018-07-14T23:33:11.607Z,16.20
2018-07-14T23:35:39.932Z,16.20
2018-07-14T23:38:09.150Z,16.10
2018-07-14T23:40:37.459Z,16.10
2018-07-14T23:43:05.792Z,16.00
2018-07-14T23:45:34.900Z,15.90
2018-07-14T23:48:03.335Z,15.90
2018-07-14T23:50:31.684Z,15.90
2018-07-14T23:53:00.238Z,15.90
2018-07-14T23:55:28.622Z,15.90
2018-07-14T23:57:57.002Z,15.90
